• Join FlightAware (Why Join?)
  • Login
  • US Flag 
04:33PM EDT


 

Airport Tracker/Info


-or-


 

Live Flight TrackerFlight Track Log ✈ SKW6432 ✈ 14-May-2013 ✈ KSNA - KSFO

Flight Track Log - Related Links

Times and Time Zones

All times are in EDT time to prevent confusion due to time zone crossing. See the SKW6432 flight status page for this flight to view local times or setup timezone preferences in your user account.

Time Position Orientation Groundspeed Altitude Reporting Facility
EDT Latitude Longitude Course Direction KTS MPH feet Rate Location/Type
08:56PM 33.6000 -117.8833 180° South 173 199 3,400  Level Southern California TRACON
08:57PM 33.5500 -117.9000 196° South 228 262 5,000 1,860 Climbing Southern California TRACON
08:58PM 33.4205 -118.3090 239° Southwest  Level FlightAware Approximate
08:58PM 33.4764 -117.9483 209° Southwest 259 298 7,400  Level Los Angeles Center
08:59PM 33.3735 -118.4201 337° Northwest  Level FlightAware Approximate
08:59PM 33.4122 -117.9922 210° Southwest 265 305 10,200  Level Los Angeles Center
09:00PM 33.4691 -118.4883 301° West  Level FlightAware Approximate
09:00PM 33.3353 -118.0542 214° Southwest 289 333 12,600  Level Los Angeles Center
09:01PM 33.3392 -118.1594 273° West 312 359 14,800 1,980 Climbing Los Angeles Center
09:02PM 33.3536 -118.2706 279° West 330 380 16,700 1,980 Climbing Los Angeles Center
09:03PM 33.3817 -118.3803 287° West 345 397 18,900 2,100 Climbing Los Angeles Center
09:04PM 33.4528 -118.4653 315° West 361 415 21,100 2,400 Climbing Los Angeles Center
09:05PM 33.5194 -118.5475 314° West 344 396 23,900 2,340 Climbing Los Angeles Center
09:06PM 33.5881 -118.6308 315° West 347 399 26,000 1,800 Climbing Los Angeles Center
09:07PM 33.6575 -118.7156 315° West 352 405 27,700 960 Climbing Los Angeles Center
09:08PM 33.7286 -118.8019 315° West 360 414 28,000 120 Climbing Los Angeles Center
09:09PM 33.7997 -118.8889 315° West 363 418 28,000 300 Level Los Angeles Center
09:11PM 33.8858 -118.9956 314° West 369 425 28,700 720 Climbing Los Angeles Center
09:12PM 33.9606 -119.0892 314° West 386 444 29,600 1,020 Climbing Los Angeles Center
09:13PM 34.0381 -119.1842 315° West 397 457 30,900 1,140 Climbing Los Angeles Center
09:14PM 34.1181 -119.2828 314° West 407 468 32,000 1,320 Climbing Los Angeles Center
09:15PM 34.1969 -119.3814 314° West 411 473 33,700 1,440 Climbing Los Angeles Center
09:16PM 34.2747 -119.4792 314° West 406 467 35,000 1,260 Climbing Los Angeles Center
09:17PM 34.3522 -119.5758 314° West 402 463 36,300 1,200 Climbing Los Angeles Center
09:18PM 34.4436 -119.6900 314° West 397 457 37,500 780 Climbing Los Angeles Center
09:19PM 34.5197 -119.7858 314° West 395 455 38,000 240 Climbing Los Angeles Center
09:20PM 34.6100 -119.8800 319° Northwest 424 488 38,000  Level Los Angeles Center
09:21PM 34.6975 -119.9758 318° Northwest 425 489 38,000  Level Los Angeles Center
09:22PM 34.7667 -120.0514 318° Northwest 419 482 38,000  Level Los Angeles Center
09:23PM 34.8664 -120.1578 319° Northwest 426 490 38,000  Level Los Angeles Center
09:24PM 34.9650 -120.2678 318° Northwest 412 474 38,000  Level Los Angeles Center
09:25PM 35.0475 -120.3594 318° Northwest 406 467 38,000  Level Los Angeles Center
09:26PM 35.1292 -120.4511 317° Northwest 403 464 38,000  Level Los Angeles Center
09:27PM 35.2114 -120.5425 318° Northwest 406 467 38,000  Level Los Angeles Center
09:28PM 35.2931 -120.6353 317° Northwest 405 466 38,000  Level Los Angeles Center
09:29PM 35.3992 -120.7328 323° Northwest 407 468 38,000  Level Oakland Center
09:30PM 35.4914 -120.8158 324° Northwest 407 468 38,000  Level Oakland Center
09:31PM 35.5833 -120.8981 324° Northwest 407 468 38,000  Level Oakland Center
09:32PM 35.6750 -120.9814 324° Northwest 407 468 38,000  Level Oakland Center
09:33PM 35.7681 -121.0656 324° Northwest 412 474 38,000  Level Oakland Center
09:34PM 35.8794 -121.1656 324° Northwest 413 475 38,000 -240 Level Oakland Center
09:35PM 35.9714 -121.2503 323° Northwest 413 475 37,600 -1,500 Descending Oakland Center
09:36PM 36.0692 -121.3381 324° Northwest 426 490 35,000 -2,640 Descending Oakland Center
09:37PM 36.1697 -121.4292 324° Northwest 442 509 32,300 -2,640 Descending Oakland Center
09:38PM 36.2686 -121.5206 323° Northwest 444 511 29,700 -2,460 Descending Oakland Center
09:39PM 36.3658 -121.6106 323° Northwest 439 505 27,300 -2,340 Descending Oakland Center
09:40PM 36.4581 -121.6950 324° Northwest 419 482 25,000 -1,620 Descending Oakland Center
09:41PM 36.5369 -121.7700 323° Northwest 363 418 24,000 -1,500 Descending Oakland Center
09:42PM 36.6100 -121.8367 324° Northwest 332 382 22,000 -2,100 Descending Oakland Center
09:43PM 36.7000 -121.9167 325° Northwest 342 394 19,800 -2,100 Descending Northern Cal TRACON
09:44PM 36.7667 -121.9667 329° Northwest 310 357 17,900 -1,800 Descending Northern Cal TRACON
09:45PM 36.8500 -122.0000 342° North 303 349 16,100 -1,740 Descending Northern Cal TRACON
09:46PM 36.9333 -122.0131 353° North 298 343 14,400 -1,740 Descending Oakland Center
09:47PM 37.0106 -122.0339 348° North 289 333 12,700 -1,620 Descending Oakland Center
09:49PM 37.0933 -122.0558 348° North 285 328 11,100 -1,320 Descending Oakland Center
09:50PM 37.1681 -122.0756 348° North 277 319 10,100 -960 Descending Oakland Center
09:51PM 37.2089 -122.1447 307° West 272 313 9,200 -840 Descending Oakland Center
09:52PM 37.2336 -122.2192 293° West 241 277 8,400 -600 Descending Oakland Center
09:53PM 37.2581 -122.2911 293° West 228 262 8,000 -300 Descending Oakland Center
09:54PM 37.2917 -122.3531 304° West 237 273 7,800 -540 Descending Oakland Center
09:55PM 37.3508 -122.3353 13° North 234 269 7,000 -660 Descending Oakland Center
09:56PM 37.3850 -122.2683 57° Northeast 245 282 6,500 -600 Descending Oakland Center
09:57PM 37.3997 -122.1856 77° East 243 280 5,900 -900 Descending Oakland Center
09:58PM 37.4167 -122.1167 73° East 213 245 4,900 -960 Descending Northern Cal TRACON
09:59PM 37.4667 -122.1167 360° North 185 213 4,100 -480 Descending Northern Cal TRACON
10:00PM 37.5000 -122.1500 322° Northwest 176 203 4,000 -420 Descending Northern Cal TRACON
10:01PM 37.5333 -122.1833 322° Northwest 174 200 3,300 -780 Descending Northern Cal TRACON
10:02PM 37.5667 -122.2333 310° West 165 190 2,600 -720 Descending Northern Cal TRACON